createdAt,value
2023-03-15T05:00:53.540Z,-0.10
2023-03-15T05:01:53.407Z,-0.14
2023-03-15T05:02:53.431Z,-0.11
2023-03-15T05:03:55.052Z,-0.11
2023-03-15T05:04:53.352Z,-0.11
2023-03-15T05:05:53.330Z,-0.14
2023-03-15T05:06:53.363Z,-0.14
2023-03-15T05:07:53.314Z,-0.15
2023-03-15T05:08:53.301Z,-0.15
2023-03-15T05:09:53.293Z,-0.15
2023-03-15T05:10:53.366Z,-0.15
2023-03-15T05:11:53.268Z,-0.15
2023-03-15T05:12:53.252Z,-0.18
2023-03-15T05:13:53.221Z,-0.15
2023-03-15T05:15:00.276Z,-0.16
2023-03-15T05:15:53.248Z,-0.16
2023-03-15T05:16:53.184Z,-0.15
2023-03-15T05:17:53.161Z,-0.15
2023-03-15T05:18:53.858Z,-0.15
2023-03-15T05:19:53.148Z,-0.15
2023-03-15T05:20:53.151Z,-0.14
2023-03-15T05:21:53.161Z,-0.11
2023-03-15T05:22:53.126Z,-0.11
2023-03-15T05:23:53.082Z,-0.10
2023-03-15T05:24:53.109Z,-0.10
2023-03-15T05:25:53.071Z,-0.11
2023-03-15T05:26:53.060Z,-0.11
2023-03-15T05:27:53.115Z,-0.10
2023-03-15T05:28:53.039Z,-0.11
2023-03-15T05:29:53.046Z,-0.11
2023-03-15T05:30:53.032Z,-0.10
2023-03-15T05:31:53.058Z,-0.10
2023-03-15T05:32:53.103Z,-0.11
2023-03-15T05:33:53.024Z,-0.07
2023-03-15T05:34:52.976Z,-0.08
2023-03-15T05:35:53.216Z,-0.08
2023-03-15T05:36:52.937Z,-0.11
2023-03-15T05:37:52.906Z,-0.14
2023-03-15T05:38:52.920Z,-0.14
2023-03-15T05:39:52.887Z,-0.10
2023-03-15T05:40:52.906Z,-0.08
2023-03-15T05:41:52.896Z,-0.07
2023-03-15T05:42:52.869Z,-0.07
2023-03-15T05:43:52.849Z,-0.04
2023-03-15T05:44:52.834Z,-0.04
2023-03-15T05:45:52.909Z,-0.01
2023-03-15T05:46:52.814Z,0.00
2023-03-15T05:47:52.772Z,-0.03
2023-03-15T05:48:52.782Z,-0.03
2023-03-15T05:49:52.762Z,-0.05
2023-03-15T05:50:52.741Z,-0.05
2023-03-15T05:51:52.802Z,-0.07
2023-03-15T05:52:52.711Z,-0.07
2023-03-15T05:53:52.737Z,-0.05
2023-03-15T05:54:52.688Z,-0.04
2023-03-15T05:55:52.707Z,-0.05
2023-03-15T05:56:52.676Z,-0.03
2023-03-15T05:57:52.744Z,0.02
2023-03-15T05:58:52.635Z,-0.01
2023-03-15T05:59:54.110Z,-0.04
2023-03-15T06:00:52.676Z,-0.04
2023-03-15T06:01:52.615Z,-0.04
2023-03-15T06:02:52.581Z,0.02
2023-03-15T06:03:52.704Z,0.08
2023-03-15T06:04:52.553Z,0.10
2023-03-15T06:05:52.572Z,0.13
2023-03-15T06:06:52.601Z,0.14
2023-03-15T06:07:52.531Z,0.14
2023-03-15T06:08:52.500Z,0.14
2023-03-15T06:09:52.567Z,0.17
2023-03-15T06:10:52.731Z,0.20
2023-03-15T06:11:52.511Z,0.23
2023-03-15T06:12:52.462Z,0.21
2023-03-15T06:13:52.470Z,0.26
2023-03-15T06:14:52.466Z,0.26
2023-03-15T06:15:52.457Z,0.26
2023-03-15T06:16:52.490Z,0.28
2023-03-15T06:17:52.425Z,0.31
2023-03-15T06:18:52.398Z,0.33
2023-03-15T06:19:52.795Z,0.35
2023-03-15T06:20:52.395Z,0.38
2023-03-15T06:21:52.368Z,0.41
2023-03-15T06:22:52.337Z,0.46
2023-03-15T06:23:52.331Z,0.50
2023-03-15T06:24:52.317Z,0.61
2023-03-15T06:25:52.377Z,0.76
2023-03-15T06:26:52.275Z,1.14
2023-03-15T06:27:52.339Z,1.54
2023-03-15T06:28:52.247Z,2.05
2023-03-15T06:29:52.269Z,2.53
2023-03-15T06:30:52.258Z,2.79
2023-03-15T06:31:52.300Z,2.97
2023-03-15T06:32:52.242Z,3.31
2023-03-15T06:33:52.208Z,3.43
2023-03-15T06:34:52.189Z,3.73
2023-03-15T06:35:52.219Z,3.98
2023-03-15T06:36:52.149Z,4.20
2023-03-15T06:37:52.212Z,4.33
2023-03-15T06:38:52.121Z,4.48
2023-03-15T06:39:52.128Z,4.55
2023-03-15T06:40:52.101Z,4.70
2023-03-15T06:41:52.103Z,4.72
2023-03-15T06:42:52.069Z,4.86
2023-03-15T06:43:52.173Z,4.91
2023-03-15T06:44:52.052Z,4.99
2023-03-15T06:45:52.073Z,5.13
2023-03-15T06:46:52.016Z,5.25
2023-03-15T06:47:52.040Z,5.35
2023-03-15T06:48:51.994Z,5.45
2023-03-15T06:49:52.036Z,5.56
2023-03-15T06:50:51.965Z,5.56
2023-03-15T06:51:51.977Z,5.61
2023-03-15T06:52:51.937Z,5.68
2023-03-15T06:53:51.997Z,5.76
2023-03-15T06:54:51.986Z,5.75
2023-03-15T06:55:51.921Z,5.67
2023-03-15T06:56:51.893Z,5.72
2023-03-15T06:57:51.900Z,5.75
2023-03-15T06:58:51.870Z,5.64
2023-03-15T06:59:51.901Z,5.74
2023-03-15T07:00:52.265Z,5.78
2023-03-15T07:01:51.927Z,5.75
2023-03-15T07:02:51.862Z,5.82
2023-03-15T07:03:51.821Z,5.93
2023-03-15T07:04:51.853Z,6.28
2023-03-15T07:05:51.804Z,6.46
2023-03-15T07:06:51.874Z,6.52
2023-03-15T07:07:51.784Z,6.64
2023-03-15T07:08:51.767Z,6.48
2023-03-15T07:09:52.568Z,6.62
2023-03-15T07:10:51.753Z,6.66
2023-03-15T07:11:51.724Z,6.81
2023-03-15T07:12:51.689Z,6.74
2023-03-15T07:13:51.692Z,6.71
2023-03-15T07:14:51.676Z,6.73
2023-03-15T07:15:51.734Z,6.67
2023-03-15T07:16:58.653Z,6.81
2023-03-15T07:17:58.663Z,6.97
2023-03-15T07:18:51.609Z,7.05
2023-03-15T07:19:56.679Z,7.28
2023-03-15T07:20:52.620Z,7.25
2023-03-15T07:21:51.596Z,7.42
2023-03-15T07:22:51.556Z,7.46
2023-03-15T07:23:51.562Z,7.17
2023-03-15T07:24:51.547Z,7.23
2023-03-15T07:25:54.961Z,7.40
2023-03-15T07:26:51.505Z,7.39
2023-03-15T07:27:51.528Z,7.53
2023-03-15T07:28:51.481Z,7.50
2023-03-15T07:29:51.489Z,7.45
2023-03-15T07:30:51.611Z,7.69
2023-03-15T07:31:51.465Z,7.82
2023-03-15T07:32:51.527Z,7.82
2023-03-15T07:33:51.426Z,8.02
2023-03-15T07:34:51.403Z,7.82
2023-03-15T07:35:51.474Z,7.79
2023-03-15T07:36:51.378Z,7.61
2023-03-15T07:37:51.398Z,7.49
2023-03-15T07:38:51.353Z,7.43
2023-03-15T07:39:51.370Z,7.46
2023-03-15T07:40:51.439Z,7.50
2023-03-15T07:41:51.330Z,7.72
2023-03-15T07:42:51.298Z,7.80
2023-03-15T07:43:51.299Z,7.87
2023-03-15T07:44:51.295Z,8.15
2023-03-15T07:45:51.345Z,8.08
2023-03-15T07:46:51.306Z,8.16
2023-03-15T07:47:51.257Z,8.36
2023-03-15T07:48:51.218Z,8.53
2023-03-15T07:49:51.243Z,8.68
2023-03-15T07:50:51.196Z,8.50
2023-03-15T07:51:51.275Z,8.56
2023-03-15T07:52:51.168Z,8.76
2023-03-15T07:53:51.208Z,8.92
2023-03-15T07:54:51.146Z,9.02
2023-03-15T07:55:51.155Z,8.71
2023-03-15T07:56:51.113Z,8.52
2023-03-15T07:57:53.225Z,8.23
2023-03-15T07:58:51.090Z,8.16
2023-03-15T07:59:51.093Z,8.26
2023-03-15T08:00:51.072Z,8.41
2023-03-15T08:01:51.096Z,8.40
2023-03-15T08:02:51.087Z,8.50
2023-03-15T08:03:51.123Z,8.52
2023-03-15T08:04:51.007Z,8.61
2023-03-15T08:05:51.013Z,8.63
2023-03-15T08:06:50.991Z,8.62
2023-03-15T08:07:50.990Z,8.81
2023-03-15T08:08:50.962Z,9.01
2023-03-15T08:09:51.150Z,8.86
2023-03-15T08:10:50.932Z,8.77
2023-03-15T08:11:50.961Z,8.77
2023-03-15T08:12:50.925Z,8.68
2023-03-15T08:13:50.920Z,8.29
2023-03-15T08:14:50.879Z,8.26
2023-03-15T08:15:50.994Z,8.44
2023-03-15T08:16:50.854Z,8.58
2023-03-15T08:17:50.898Z,8.52
2023-03-15T08:18:50.824Z,8.41
2023-03-15T08:19:50.860Z,8.45
2023-03-15T08:20:50.793Z,8.23
2023-03-15T08:21:50.863Z,7.68
2023-03-15T08:22:50.778Z,6.99
2023-03-15T08:23:50.781Z,6.79
2023-03-15T08:24:50.739Z,6.52
2023-03-15T08:25:50.765Z,6.37
2023-03-15T08:26:50.761Z,6.25
2023-03-15T08:27:50.791Z,6.09
2023-03-15T08:28:50.696Z,6.06
2023-03-15T08:29:52.419Z,5.86
2023-03-15T08:30:50.673Z,5.78
2023-03-15T08:31:50.764Z,5.71
2023-03-15T08:32:50.769Z,5.63
2023-03-15T08:33:50.661Z,5.53
2023-03-15T08:34:50.618Z,5.54
2023-03-15T08:35:50.652Z,5.56
2023-03-15T08:36:50.604Z,5.56
2023-03-15T08:37:50.596Z,5.63
2023-03-15T08:38:50.624Z,5.63
2023-03-15T08:39:50.579Z,5.58
2023-03-15T08:40:50.540Z,5.63
2023-03-15T08:41:50.555Z,5.64
2023-03-15T08:42:50.513Z,5.68
2023-03-15T08:43:50.526Z,5.76
2023-03-15T08:44:50.536Z,5.76
2023-03-15T08:46:00.256Z,5.76
2023-03-15T08:46:51.520Z,5.74
2023-03-15T08:47:50.473Z,5.83
2023-03-15T08:48:50.441Z,5.93
2023-03-15T08:49:50.433Z,6.01
2023-03-15T08:50:50.463Z,6.12
2023-03-15T08:51:50.429Z,6.12
2023-03-15T08:52:50.390Z,6.14
2023-03-15T08:53:50.380Z,6.25
2023-03-15T08:54:50.341Z,6.21
2023-03-15T08:55:50.353Z,6.19
2023-03-15T08:56:50.520Z,6.31
2023-03-15T08:57:50.345Z,6.41
2023-03-15T08:58:50.298Z,6.52
2023-03-15T08:59:50.317Z,6.61
2023-03-15T09:00:50.277Z,6.62
2023-03-15T09:01:50.547Z,6.64
2023-03-15T09:02:50.248Z,6.59
2023-03-15T09:03:50.257Z,6.71
2023-03-15T09:04:52.421Z,6.77
2023-03-15T09:05:50.233Z,6.76
2023-03-15T09:06:50.232Z,6.73
2023-03-15T09:07:50.235Z,6.80
2023-03-15T09:08:50.170Z,6.76
2023-03-15T09:09:50.182Z,6.81
2023-03-15T09:10:50.144Z,6.94
2023-03-15T09:11:50.154Z,7.05
2023-03-15T09:12:50.187Z,7.20
2023-03-15T09:13:50.129Z,7.21
2023-03-15T09:14:50.093Z,7.24
2023-03-15T09:15:50.100Z,7.37
2023-03-15T09:16:50.081Z,7.40
2023-03-15T09:17:50.119Z,7.45
2023-03-15T09:18:50.363Z,7.48
2023-03-15T09:19:50.051Z,7.30
2023-03-15T09:20:50.022Z,7.34
2023-03-15T09:21:50.014Z,7.24
2023-03-15T09:22:49.993Z,7.31
2023-03-15T09:23:50.011Z,7.37
2023-03-15T09:24:51.455Z,7.50
2023-03-15T09:25:49.987Z,7.39
2023-03-15T09:26:49.948Z,7.43
2023-03-15T09:27:49.949Z,7.53
2023-03-15T09:28:49.915Z,7.63
2023-03-15T09:29:49.938Z,7.77
2023-03-15T09:30:49.973Z,7.83
2023-03-15T09:31:49.909Z,7.89
2023-03-15T09:32:49.939Z,7.90
2023-03-15T09:33:49.873Z,8.00
2023-03-15T09:34:49.843Z,8.08
2023-03-15T09:35:49.926Z,8.07
2023-03-15T09:36:49.806Z,8.15
2023-03-15T09:37:49.836Z,8.18
2023-03-15T09:38:49.783Z,8.29
2023-03-15T09:39:49.791Z,8.37
2023-03-15T09:40:49.817Z,8.43
2023-03-15T09:41:49.785Z,8.41
2023-03-15T09:42:49.744Z,8.45
2023-03-15T09:43:49.761Z,8.44
2023-03-15T09:44:49.715Z,8.34
2023-03-15T09:45:49.713Z,8.19
2023-03-15T09:46:49.824Z,8.15
2023-03-15T09:47:49.683Z,8.23
2023-03-15T09:48:49.664Z,8.12
2023-03-15T09:49:49.686Z,7.86
2023-03-15T09:50:49.653Z,7.71
2023-03-15T09:51:49.644Z,7.67
2023-03-15T09:52:49.662Z,7.67
2023-03-15T09:53:49.622Z,7.64
2023-03-15T09:54:49.592Z,7.60
2023-03-15T09:55:49.592Z,7.60
2023-03-15T09:56:49.552Z,7.60
2023-03-15T09:57:49.714Z,7.55
2023-03-15T09:58:49.601Z,7.48
2023-03-15T09:59:49.590Z,7.46
2023-03-15T10:00:49.511Z,7.49
2023-03-15T10:01:49.578Z,7.57
2023-03-15T10:02:49.501Z,7.61
2023-03-15T10:03:49.601Z,7.61
2023-03-15T10:04:49.579Z,7.55
2023-03-15T10:05:49.452Z,7.45
2023-03-15T10:06:49.466Z,7.48
2023-03-15T10:07:49.427Z,7.57
2023-03-15T10:08:49.422Z,7.67
2023-03-15T10:09:49.411Z,7.63
2023-03-15T10:10:49.457Z,7.67
2023-03-15T10:11:49.381Z,7.69
2023-03-15T10:12:49.388Z,7.63
2023-03-15T10:13:49.341Z,7.61
2023-03-15T10:14:49.380Z,7.55
2023-03-15T10:15:49.384Z,7.53
2023-03-15T10:16:49.469Z,7.61
2023-03-15T10:17:49.300Z,7.61
2023-03-15T10:18:49.318Z,7.52
2023-03-15T10:19:49.289Z,7.50
2023-03-15T10:20:49.270Z,7.45
2023-03-15T10:21:49.250Z,7.49
2023-03-15T10:22:49.342Z,7.48
2023-03-15T10:23:49.220Z,7.45
2023-03-15T10:24:49.229Z,7.37
2023-03-15T10:25:49.212Z,7.31
2023-03-15T10:26:49.200Z,7.28
2023-03-15T10:27:49.170Z,7.17
2023-03-15T10:28:49.206Z,7.13
2023-03-15T10:29:49.146Z,7.07
2023-03-15T10:30:49.179Z,7.05
2023-03-15T10:31:49.134Z,7.02
2023-03-15T10:32:49.119Z,6.99
2023-03-15T10:33:49.142Z,7.03
2023-03-15T10:34:49.118Z,7.07
2023-03-15T10:35:51.020Z,7.07
2023-03-15T10:36:49.081Z,6.99
2023-03-15T10:37:49.036Z,7.02
2023-03-15T10:38:49.038Z,7.02
2023-03-15T10:39:49.071Z,7.05
2023-03-15T10:40:49.011Z,7.10
2023-03-15T10:41:48.992Z,7.21
2023-03-15T10:42:49.178Z,7.21
2023-03-15T10:43:48.948Z,7.31
2023-03-15T10:44:48.967Z,7.32
2023-03-15T10:45:48.983Z,7.35
2023-03-15T10:46:49.010Z,7.48
2023-03-15T10:47:57.553Z,7.50
2023-03-15T10:48:49.899Z,7.60
2023-03-15T10:49:48.886Z,7.68
2023-03-15T10:50:48.977Z,7.86
2023-03-15T10:51:48.947Z,8.01
2023-03-15T10:52:51.309Z,8.19
2023-03-15T10:53:48.821Z,8.40
2023-03-15T10:54:52.580Z,8.55
2023-03-15T10:55:49.881Z,8.53
2023-03-15T10:56:48.814Z,8.55
2023-03-15T10:57:48.830Z,8.65
2023-03-15T10:59:05.365Z,8.81
2023-03-15T10:59:49.743Z,8.80
2023-03-15T11:00:48.744Z,8.91
2023-03-15T11:01:48.805Z,9.05
2023-03-15T11:02:48.788Z,9.13
2023-03-15T11:03:48.760Z,9.20
2023-03-15T11:04:48.706Z,9.35
2023-03-15T11:05:48.661Z,9.46
2023-03-15T11:06:48.672Z,9.51
2023-03-15T11:07:48.641Z,9.51
2023-03-15T11:08:48.658Z,9.51
2023-03-15T11:09:48.693Z,9.53
2023-03-15T11:10:48.720Z,9.54
2023-03-15T11:11:48.610Z,9.60
2023-03-15T11:12:48.605Z,9.69
2023-03-15T11:13:48.550Z,9.65
2023-03-15T11:14:48.564Z,9.50
2023-03-15T11:15:55.596Z,9.48
2023-03-15T11:16:48.534Z,9.47
2023-03-15T11:17:48.523Z,9.47
2023-03-15T11:18:48.516Z,9.42
2023-03-15T11:19:48.492Z,9.51
2023-03-15T11:20:48.573Z,9.40
2023-03-15T11:21:48.463Z,9.26
2023-03-15T11:22:48.466Z,9.31
2023-03-15T11:23:48.422Z,9.28
2023-03-15T11:24:48.500Z,9.21
2023-03-15T11:25:48.405Z,9.15
2023-03-15T11:26:48.473Z,9.15
2023-03-15T11:27:48.393Z,9.11
2023-03-15T11:28:52.383Z,9.10
2023-03-15T11:29:48.344Z,9.13
2023-03-15T11:30:48.734Z,9.11
2023-03-15T11:31:48.362Z,9.10
2023-03-15T11:32:48.513Z,9.04
2023-03-15T11:33:48.301Z,8.95
2023-03-15T11:34:48.314Z,8.81
2023-03-15T11:35:48.573Z,8.77
2023-03-15T11:36:55.677Z,8.74
2023-03-15T11:37:49.313Z,8.55
2023-03-15T11:38:48.274Z,8.38
2023-03-15T11:39:50.229Z,8.30
2023-03-15T11:40:48.288Z,8.18
2023-03-15T11:41:48.253Z,8.10
2023-03-15T11:42:48.238Z,8.00
2023-03-15T11:43:48.203Z,7.92
2023-03-15T11:44:48.197Z,7.82
2023-03-15T11:45:48.183Z,7.77
2023-03-15T11:46:48.200Z,7.72
2023-03-15T11:47:48.109Z,7.68
2023-03-15T11:48:48.112Z,7.63
2023-03-15T11:49:48.104Z,7.55
2023-03-15T11:50:48.139Z,7.52
2023-03-15T11:51:48.074Z,7.50
2023-03-15T11:52:48.143Z,7.52
2023-03-15T11:53:48.191Z,7.45
2023-03-15T11:54:48.051Z,7.45
2023-03-15T11:55:48.011Z,7.42
2023-03-15T11:56:48.036Z,7.43
2023-03-15T11:57:48.026Z,7.49
2023-03-15T11:58:48.052Z,7.55
2023-03-15T11:59:47.994Z,7.68
2023-03-15T12:00:47.988Z,7.69
2023-03-15T12:01:47.989Z,7.69
2023-03-15T12:02:47.950Z,7.72
2023-03-15T12:03:47.908Z,7.72
2023-03-15T12:04:48.001Z,7.72
2023-03-15T12:05:47.887Z,7.74
2023-03-15T12:06:47.891Z,7.74
2023-03-15T12:07:47.877Z,7.74
2023-03-15T12:08:47.877Z,7.68
2023-03-15T12:09:47.865Z,7.63
2023-03-15T12:10:47.890Z,7.61
2023-03-15T12:11:47.807Z,7.58
2023-03-15T12:12:47.816Z,7.58
2023-03-15T12:13:47.773Z,7.57
2023-03-15T12:14:47.793Z,7.57
2023-03-15T12:15:47.803Z,7.55
2023-03-15T12:16:47.831Z,7.52
2023-03-15T12:17:47.735Z,7.46
2023-03-15T12:18:47.722Z,7.45
2023-03-15T12:19:47.726Z,7.42
2023-03-15T12:20:47.736Z,7.42
2023-03-15T12:21:47.714Z,7.42
2023-03-15T12:22:47.681Z,7.42
2023-03-15T12:23:47.642Z,7.45
2023-03-15T12:24:47.697Z,7.42
2023-03-15T12:25:54.701Z,7.42
2023-03-15T12:26:48.646Z,7.39
2023-03-15T12:27:47.611Z,7.37
2023-03-15T12:28:47.611Z,7.35
2023-03-15T12:29:47.567Z,7.32
2023-03-15T12:30:47.691Z,7.24
2023-03-15T12:31:47.540Z,7.23
2023-03-15T12:32:47.590Z,7.23
2023-03-15T12:33:47.521Z,7.25
2023-03-15T12:34:47.553Z,7.32
2023-03-15T12:35:47.494Z,7.40
2023-03-15T12:36:47.550Z,7.35
2023-03-15T12:37:47.478Z,7.28
2023-03-15T12:38:47.471Z,7.21
2023-03-15T12:39:47.476Z,7.13
2023-03-15T12:40:47.441Z,7.09
2023-03-15T12:41:47.435Z,7.12
2023-03-15T12:42:47.477Z,7.16
2023-03-15T12:43:47.379Z,7.16
2023-03-15T12:44:47.391Z,7.31
2023-03-15T12:45:47.359Z,7.45
2023-03-15T12:46:47.353Z,7.63
2023-03-15T12:47:47.340Z,7.67
2023-03-15T12:48:47.383Z,7.67
2023-03-15T12:49:47.338Z,7.64
2023-03-15T12:50:47.322Z,7.67
2023-03-15T12:51:47.268Z,7.72
2023-03-15T12:52:47.299Z,7.72
2023-03-15T12:53:47.263Z,7.87
2023-03-15T12:54:47.678Z,8.11
2023-03-15T12:55:47.660Z,8.33
2023-03-15T12:56:47.238Z,8.38
2023-03-15T12:57:47.214Z,8.34
2023-03-15T12:58:47.207Z,8.44
2023-03-15T12:59:47.177Z,8.48
2023-03-15T13:00:47.270Z,8.45
2023-03-15T13:01:47.249Z,8.52
2023-03-15T13:02:47.202Z,8.59
2023-03-15T13:03:47.202Z,8.65
2023-03-15T13:04:47.137Z,8.59
2023-03-15T13:05:49.242Z,8.53
2023-03-15T13:06:48.124Z,8.45
2023-03-15T13:07:52.302Z,8.16
2023-03-15T13:08:48.092Z,8.00
2023-03-15T13:09:47.057Z,7.95
2023-03-15T13:10:47.174Z,7.86
2023-03-15T13:11:47.024Z,7.75
2023-03-15T13:12:47.029Z,7.71
2023-03-15T13:13:47.002Z,7.71
2023-03-15T13:14:47.008Z,7.72
2023-03-15T13:15:47.013Z,7.64
2023-03-15T13:16:47.047Z,7.57
2023-03-15T13:17:46.944Z,7.53
2023-03-15T13:18:46.964Z,7.40
2023-03-15T13:19:46.943Z,7.42
2023-03-15T13:20:46.934Z,7.45
2023-03-15T13:21:46.924Z,7.48
2023-03-15T13:22:55.231Z,7.50
2023-03-15T13:23:47.890Z,7.48
2023-03-15T13:24:46.890Z,7.45
2023-03-15T13:25:46.884Z,7.42
2023-03-15T13:26:46.870Z,7.40
2023-03-15T13:27:46.826Z,7.40
2023-03-15T13:28:46.836Z,7.37
2023-03-15T13:29:46.790Z,7.42
2023-03-15T13:30:46.860Z,7.42
2023-03-15T13:31:46.957Z,7.39
2023-03-15T13:32:46.831Z,7.39
2023-03-15T13:33:46.753Z,7.42
2023-03-15T13:34:46.749Z,7.37
2023-03-15T13:35:46.865Z,7.37
2023-03-15T13:36:46.727Z,7.35
2023-03-15T13:37:46.690Z,7.27
2023-03-15T13:38:46.719Z,7.16
2023-03-15T13:39:46.662Z,7.02
2023-03-15T13:40:46.668Z,7.02
2023-03-15T13:41:46.671Z,6.95
2023-03-15T13:42:46.649Z,6.81
2023-03-15T13:43:46.656Z,6.66
2023-03-15T13:44:46.652Z,6.61
2023-03-15T13:45:46.588Z,6.69
2023-03-15T13:46:46.719Z,6.73
2023-03-15T13:47:46.573Z,6.66
2023-03-15T13:48:46.589Z,6.67
2023-03-15T13:49:46.529Z,6.56
2023-03-15T13:50:46.539Z,6.59
2023-03-15T13:51:46.512Z,6.64
2023-03-15T13:52:46.608Z,6.70
2023-03-15T13:53:49.505Z,6.79
2023-03-15T13:54:46.517Z,6.79
2023-03-15T13:55:46.499Z,6.69
2023-03-15T13:56:49.513Z,6.56
2023-03-15T13:57:46.452Z,6.55
2023-03-15T13:58:46.524Z,6.56
2023-03-15T13:59:46.415Z,6.51
2023-03-15T14:00:46.417Z,6.38
2023-03-15T14:01:46.426Z,6.21
2023-03-15T14:02:46.431Z,6.15
2023-03-15T14:03:46.354Z,6.15
2023-03-15T14:04:46.416Z,6.22
2023-03-15T14:05:46.508Z,6.30
2023-03-15T14:06:46.330Z,6.30
2023-03-15T14:07:46.302Z,6.27
2023-03-15T14:08:46.323Z,6.25
2023-03-15T14:09:46.275Z,6.33
2023-03-15T14:10:46.286Z,6.37
2023-03-15T14:11:46.306Z,6.44
2023-03-15T14:12:46.265Z,6.51
2023-03-15T14:13:46.243Z,6.54
2023-03-15T14:14:46.211Z,6.51
2023-03-15T14:15:46.256Z,6.46
2023-03-15T14:17:03.000Z,6.44
2023-03-15T14:17:47.228Z,6.41
2023-03-15T14:18:46.151Z,6.36
2023-03-15T14:19:46.172Z,6.28
2023-03-15T14:20:46.135Z,6.33
2023-03-15T14:21:46.217Z,6.33
2023-03-15T14:22:46.113Z,6.31
2023-03-15T14:23:46.126Z,6.37
2023-03-15T14:24:46.087Z,6.46
2023-03-15T14:25:46.107Z,6.58
2023-03-15T14:26:46.045Z,6.70
2023-03-15T14:27:46.140Z,6.80
2023-03-15T14:28:46.041Z,6.91
2023-03-15T14:29:46.086Z,7.05
2023-03-15T14:30:46.002Z,7.24
2023-03-15T14:31:46.092Z,7.30
2023-03-15T14:32:46.062Z,7.34
2023-03-15T14:33:45.975Z,7.48
2023-03-15T14:34:45.972Z,7.63
2023-03-15T14:35:46.187Z,7.60
2023-03-15T14:36:45.946Z,7.74
2023-03-15T14:37:45.980Z,7.86
2023-03-15T14:38:45.903Z,7.98
2023-03-15T14:39:45.911Z,8.01
2023-03-15T14:40:45.903Z,8.00
2023-03-15T14:41:45.885Z,7.95
2023-03-15T14:42:45.953Z,7.92
2023-03-15T14:43:45.847Z,7.77
2023-03-15T14:44:45.821Z,7.71
2023-03-15T14:45:45.971Z,7.57
2023-03-15T14:46:45.847Z,7.55
2023-03-15T14:47:56.179Z,7.50
2023-03-15T14:48:46.763Z,7.43
2023-03-15T14:49:45.769Z,7.46
2023-03-15T14:50:45.868Z,7.53
2023-03-15T14:51:45.808Z,7.52
2023-03-15T14:52:45.718Z,7.46
2023-03-15T14:53:45.718Z,7.30
2023-03-15T14:54:45.692Z,7.20
2023-03-15T14:55:45.711Z,7.23
2023-03-15T14:56:45.689Z,7.25
2023-03-15T14:57:45.707Z,7.37
2023-03-15T14:58:45.656Z,7.37
2023-03-15T14:59:45.659Z,7.39
2023-03-15T15:00:45.637Z,7.34
2023-03-15T15:01:46.887Z,7.37
2023-03-15T15:02:45.737Z,7.32
2023-03-15T15:03:45.638Z,7.37
2023-03-15T15:04:45.574Z,7.34
2023-03-15T15:05:45.564Z,7.30
2023-03-15T15:06:45.584Z,7.31
2023-03-15T15:07:45.543Z,7.31
2023-03-15T15:08:45.547Z,7.30
2023-03-15T15:09:45.585Z,7.23
2023-03-15T15:10:45.511Z,7.10
2023-03-15T15:11:45.493Z,7.10
2023-03-15T15:12:48.533Z,7.07
2023-03-15T15:13:46.460Z,7.05
2023-03-15T15:14:45.437Z,7.06
2023-03-15T15:15:55.298Z,7.10
2023-03-15T15:16:46.497Z,6.99
2023-03-15T15:17:45.402Z,6.97
2023-03-15T15:18:45.380Z,7.03
2023-03-15T15:19:47.030Z,7.03
2023-03-15T15:20:45.606Z,6.89
2023-03-15T15:21:45.434Z,6.89
2023-03-15T15:22:45.320Z,6.88
2023-03-15T15:23:57.430Z,6.84
2023-03-15T15:24:46.288Z,6.88
2023-03-15T15:25:46.758Z,6.89
2023-03-15T15:26:45.280Z,6.91
2023-03-15T15:27:45.362Z,6.91
2023-03-15T15:28:45.241Z,6.85
2023-03-15T15:29:45.262Z,6.73
2023-03-15T15:30:45.216Z,6.56
2023-03-15T15:31:45.265Z,6.43
2023-03-15T15:32:45.248Z,6.33
2023-03-15T15:33:45.345Z,6.14
2023-03-15T15:34:45.171Z,5.97
2023-03-15T15:35:45.215Z,5.83
2023-03-15T15:36:45.145Z,5.64
2023-03-15T15:37:45.153Z,5.51
2023-03-15T15:38:45.144Z,5.46
2023-03-15T15:39:45.164Z,5.43
2023-03-15T15:40:45.131Z,5.36
2023-03-15T15:41:45.089Z,5.33
2023-03-15T15:42:45.064Z,5.28
2023-03-15T15:43:45.077Z,5.25
2023-03-15T15:44:45.043Z,5.22
2023-03-15T15:45:45.103Z,5.22
2023-03-15T15:46:45.038Z,5.18
2023-03-15T15:47:45.022Z,5.17
2023-03-15T15:48:45.009Z,4.97
2023-03-15T15:49:45.010Z,4.80
2023-03-15T15:50:45.100Z,4.70
2023-03-15T15:51:44.959Z,4.60
2023-03-15T15:52:44.932Z,4.48
2023-03-15T15:53:44.939Z,4.40
2023-03-15T15:54:44.902Z,4.32
2023-03-15T15:55:44.967Z,4.27
2023-03-15T15:56:44.888Z,4.14
2023-03-15T15:57:44.992Z,4.11
2023-03-15T15:58:44.861Z,4.08
2023-03-15T15:59:44.868Z,4.06
2023-03-15T16:00:44.849Z,4.08
2023-03-15T16:01:58.912Z,4.00
2023-03-15T16:02:45.828Z,3.96
2023-03-15T16:03:44.929Z,3.98
2023-03-15T16:04:44.786Z,3.96
2023-03-15T16:05:44.792Z,3.94
2023-03-15T16:06:44.754Z,3.97
2023-03-15T16:07:44.831Z,3.97
2023-03-15T16:08:44.724Z,3.96
2023-03-15T16:09:44.757Z,3.98
2023-03-15T16:10:44.715Z,4.06
2023-03-15T16:11:44.724Z,4.14
2023-03-15T16:12:44.711Z,4.22
2023-03-15T16:13:44.721Z,4.23
2023-03-15T16:14:44.672Z,4.27
2023-03-15T16:15:44.719Z,4.30
2023-03-15T16:16:44.826Z,4.32
2023-03-15T16:17:44.662Z,4.34
2023-03-15T16:18:44.668Z,4.27
2023-03-15T16:19:44.682Z,4.29
2023-03-15T16:20:44.606Z,4.29
2023-03-15T16:21:44.594Z,4.29
2023-03-15T16:22:44.541Z,4.34
2023-03-15T16:23:44.558Z,4.34
2023-03-15T16:24:44.628Z,4.29
2023-03-15T16:25:44.528Z,4.22
2023-03-15T16:26:44.574Z,4.18
2023-03-15T16:27:44.505Z,4.18
2023-03-15T16:28:44.492Z,4.23
2023-03-15T16:29:44.487Z,4.27
2023-03-15T16:30:46.661Z,4.29
2023-03-15T16:31:44.457Z,4.33
2023-03-15T16:32:45.078Z,4.30
2023-03-15T16:33:44.481Z,4.29
2023-03-15T16:34:44.395Z,4.27
2023-03-15T16:35:44.446Z,4.29
2023-03-15T16:36:45.070Z,4.32
2023-03-15T16:37:44.396Z,4.33
2023-03-15T16:38:44.355Z,4.34
2023-03-15T16:39:44.343Z,4.36
2023-03-15T16:40:44.423Z,4.34
2023-03-15T16:41:44.337Z,4.36
2023-03-15T16:42:44.309Z,4.40
2023-03-15T16:43:44.306Z,4.44
2023-03-15T16:44:44.272Z,4.47
2023-03-15T16:45:44.282Z,4.50
2023-03-15T16:46:44.356Z,4.48
2023-03-15T16:47:44.243Z,4.50
2023-03-15T16:48:44.211Z,4.51
2023-03-15T16:49:44.264Z,4.52
2023-03-15T16:50:44.235Z,4.58
2023-03-15T16:51:44.201Z,4.59
2023-03-15T16:52:44.221Z,4.62
2023-03-15T16:53:44.185Z,4.63
2023-03-15T16:54:44.153Z,4.63
2023-03-15T16:55:44.129Z,4.65
2023-03-15T16:56:44.115Z,4.65
2023-03-15T16:57:44.126Z,4.66
2023-03-15T16:58:44.129Z,4.70
2023-03-15T16:59:44.112Z,4.78
2023-03-15T17:00:44.118Z,4.77
2023-03-15T17:01:44.088Z,4.75
2023-03-15T17:02:44.061Z,4.72
2023-03-15T17:03:44.029Z,4.72
2023-03-15T17:04:44.039Z,4.70
2023-03-15T17:05:44.005Z,4.70
2023-03-15T17:06:44.033Z,4.70
2023-03-15T17:07:44.013Z,4.69
2023-03-15T17:08:43.946Z,4.67
2023-03-15T17:09:43.965Z,4.66
2023-03-15T17:10:43.975Z,4.66
2023-03-15T17:11:43.993Z,4.67
2023-03-15T17:12:43.914Z,4.66
2023-03-15T17:13:43.921Z,4.63
2023-03-15T17:14:43.876Z,4.63
2023-03-15T17:15:51.014Z,4.63
2023-03-15T17:16:43.901Z,4.62
2023-03-15T17:17:43.866Z,4.63
2023-03-15T17:18:43.876Z,4.63
2023-03-15T17:19:43.992Z,4.59
2023-03-15T17:20:43.806Z,4.60
2023-03-15T17:21:43.873Z,4.59
2023-03-15T17:22:43.806Z,4.59
2023-03-15T17:23:43.829Z,4.59
2023-03-15T17:24:43.791Z,4.58
2023-03-15T17:25:43.766Z,4.55
2023-03-15T17:26:43.930Z,4.55
2023-03-15T17:27:43.804Z,4.52
2023-03-15T17:28:43.754Z,4.52
2023-03-15T17:29:43.703Z,4.51
2023-03-15T17:30:43.715Z,4.50
2023-03-15T17:31:43.761Z,4.50
2023-03-15T17:32:43.704Z,4.48
2023-03-15T17:33:43.726Z,4.45
2023-03-15T17:34:43.624Z,4.45
2023-03-15T17:35:46.948Z,4.41
2023-03-15T17:36:43.599Z,4.37
2023-03-15T17:37:43.593Z,4.36
2023-03-15T17:38:43.641Z,4.36
2023-03-15T17:39:43.597Z,4.33
2023-03-15T17:40:43.546Z,4.29
2023-03-15T17:41:43.601Z,4.23
2023-03-15T17:42:43.610Z,4.20
2023-03-15T17:43:43.528Z,4.15
2023-03-15T17:44:43.503Z,4.12
2023-03-15T17:45:43.572Z,4.08
2023-03-15T17:46:43.578Z,4.06
2023-03-15T17:47:43.549Z,4.04
2023-03-15T17:48:43.449Z,3.97
2023-03-15T17:49:43.528Z,3.93
2023-03-15T17:50:43.451Z,3.88
2023-03-15T17:51:43.423Z,3.80
2023-03-15T17:52:43.485Z,3.75
2023-03-15T17:53:43.443Z,3.70
2023-03-15T17:54:43.700Z,3.65
2023-03-15T17:55:43.597Z,3.58
2023-03-15T17:56:43.341Z,3.54
2023-03-15T17:57:54.098Z,3.48
2023-03-15T17:58:44.370Z,3.40
2023-03-15T17:59:43.324Z,3.35
2023-03-15T18:00:43.323Z,3.31
2023-03-15T18:01:43.339Z,3.26
2023-03-15T18:02:46.478Z,3.20
2023-03-15T18:03:44.301Z,3.17
2023-03-15T18:04:43.322Z,3.13
2023-03-15T18:05:43.259Z,3.08
2023-03-15T18:06:43.245Z,3.03
2023-03-15T18:07:52.307Z,3.00
2023-03-15T18:08:44.203Z,2.96
2023-03-15T18:09:43.225Z,2.93
2023-03-15T18:10:43.553Z,2.89
2023-03-15T18:11:43.189Z,2.87
2023-03-15T18:12:43.242Z,2.85
2023-03-15T18:13:43.121Z,2.85
2023-03-15T18:14:43.224Z,2.84
2023-03-15T18:15:43.174Z,2.82
2023-03-15T18:16:43.252Z,2.82